sensor_id;sensor_type;location;lat;lon;timestamp;temperature;humidity
44229;DHT22;29904;51.058;5.378;2023-08-01T00:02:21;17.70;99.90
44229;DHT22;29904;51.058;5.378;2023-08-01T00:04:47;17.70;99.90
44229;DHT22;29904;51.058;5.378;2023-08-01T00:07:12;17.80;99.90
44229;DHT22;29904;51.058;5.378;2023-08-01T00:09:38;17.70;99.90
44229;DHT22;29904;51.058;5.378;2023-08-01T00:12:04;17.70;99.90
44229;DHT22;29904;51.058;5.378;2023-08-01T00:14:30;17.70;99.90
44229;DHT22;29904;51.058;5.378;2023-08-01T00:16:55;17.70;99.90
44229;DHT22;29904;51.058;5.378;2023-08-01T00:19:21;17.60;99.90
44229;DHT22;29904;51.058;5.378;2023-08-01T00:21:47;17.60;99.90
44229;DHT22;29904;51.058;5.378;2023-08-01T00:24:13;17.60;99.90
44229;DHT22;29904;51.058;5.378;2023-08-01T00:26:38;17.60;99.90
44229;DHT22;29904;51.058;5.378;2023-08-01T00:29:04;17.60;99.90
44229;DHT22;29904;51.058;5.378;2023-08-01T00:31:30;17.60;99.90
44229;DHT22;29904;51.058;5.378;2023-08-01T00:33:55;17.50;99.90
44229;DHT22;29904;51.058;5.378;2023-08-01T00:36:21;17.50;99.90
44229;DHT22;29904;51.058;5.378;2023-08-01T00:38:47;17.50;99.90
44229;DHT22;29904;51.058;5.378;2023-08-01T00:41:14;17.50;99.90
44229;DHT22;29904;51.058;5.378;2023-08-01T00:43:40;17.40;99.90
44229;DHT22;29904;51.058;5.378;2023-08-01T00:46:06;17.40;99.90
44229;DHT22;29904;51.058;5.378;2023-08-01T00:48:33;17.40;99.90
44229;DHT22;29904;51.058;5.378;2023-08-01T00:51:02;17.40;99.90
44229;DHT22;29904;51.058;5.378;2023-08-01T00:53:29;17.40;99.90
44229;DHT22;29904;51.058;5.378;2023-08-01T00:55:55;17.40;99.90
44229;DHT22;29904;51.058;5.378;2023-08-01T00:58:21;17.40;99.90
44229;DHT22;29904;51.058;5.378;2023-08-01T01:00:47;17.40;99.90
44229;DHT22;29904;51.058;5.378;2023-08-01T01:03:14;17.30;99.90
44229;DHT22;29904;51.058;5.378;2023-08-01T01:05:46;17.30;99.90
44229;DHT22;29904;51.058;5.378;2023-08-01T01:08:13;17.30;99.90
44229;DHT22;29904;51.058;5.378;2023-08-01T01:10:39;17.20;99.90
44229;DHT22;29904;51.058;5.378;2023-08-01T01:13:05;17.20;99.90
44229;DHT22;29904;51.058;5.378;2023-08-01T01:15:31;17.20;99.90
44229;DHT22;29904;51.058;5.378;2023-08-01T01:17:57;17.10;99.90
44229;DHT22;29904;51.058;5.378;2023-08-01T01:20:25;17.10;99.90
44229;DHT22;29904;51.058;5.378;2023-08-01T01:22:55;17.10;99.90
44229;DHT22;29904;51.058;5.378;2023-08-01T01:25:22;17.00;99.90
44229;DHT22;29904;51.058;5.378;2023-08-01T01:27:49;17.10;99.90
44229;DHT22;29904;51.058;5.378;2023-08-01T01:30:18;17.10;99.90
44229;DHT22;29904;51.058;5.378;2023-08-01T01:32:44;17.00;99.90
44229;DHT22;29904;51.058;5.378;2023-08-01T01:35:10;17.00;99.90
44229;DHT22;29904;51.058;5.378;2023-08-01T01:37:35;16.90;99.90
44229;DHT22;29904;51.058;5.378;2023-08-01T01:40:01;16.90;99.90
44229;DHT22;29904;51.058;5.378;2023-08-01T01:42:27;16.90;99.90
44229;DHT22;29904;51.058;5.378;2023-08-01T01:44:52;16.90;99.90
44229;DHT22;29904;51.058;5.378;2023-08-01T01:47:18;16.80;99.90
44229;DHT22;29904;51.058;5.378;2023-08-01T01:49:44;16.70;99.90
44229;DHT22;29904;51.058;5.378;2023-08-01T01:52:09;16.60;99.90
44229;DHT22;29904;51.058;5.378;2023-08-01T01:54:35;16.60;99.90
44229;DHT22;29904;51.058;5.378;2023-08-01T01:57:01;16.50;99.90
44229;DHT22;29904;51.058;5.378;2023-08-01T01:59:26;16.40;99.90
44229;DHT22;29904;51.058;5.378;2023-08-01T02:01:52;16.40;99.90
44229;DHT22;29904;51.058;5.378;2023-08-01T02:04:18;16.50;99.90
44229;DHT22;29904;51.058;5.378;2023-08-01T02:06:44;16.50;99.90
44229;DHT22;29904;51.058;5.378;2023-08-01T02:09:10;16.50;99.90
44229;DHT22;29904;51.058;5.378;2023-08-01T02:11:36;16.50;99.90
44229;DHT22;29904;51.058;5.378;2023-08-01T02:14:01;16.60;99.90
44229;DHT22;29904;51.058;5.378;2023-08-01T02:16:28;16.60;99.90
44229;DHT22;29904;51.058;5.378;2023-08-01T02:18:54;16.60;99.90
44229;DHT22;29904;51.058;5.378;2023-08-01T02:21:20;16.60;99.90
44229;DHT22;29904;51.058;5.378;2023-08-01T02:23:45;16.50;99.90
44229;DHT22;29904;51.058;5.378;2023-08-01T02:26:11;16.50;99.90
44229;DHT22;29904;51.058;5.378;2023-08-01T02:28:37;16.50;99.90
44229;DHT22;29904;51.058;5.378;2023-08-01T02:31:02;16.50;99.90
44229;DHT22;29904;51.058;5.378;2023-08-01T02:33:28;16.50;99.90
44229;DHT22;29904;51.058;5.378;2023-08-01T02:35:54;16.40;99.90
44229;DHT22;29904;51.058;5.378;2023-08-01T02:38:19;16.50;99.90
44229;DHT22;29904;51.058;5.378;2023-08-01T02:40:45;16.50;99.90
44229;DHT22;29904;51.058;5.378;2023-08-01T02:43:11;16.50;99.90
44229;DHT22;29904;51.058;5.378;2023-08-01T02:45:36;16.50;99.90
44229;DHT22;29904;51.058;5.378;2023-08-01T02:48:02;16.50;99.90
44229;DHT22;29904;51.058;5.378;2023-08-01T02:50:28;16.50;99.90
44229;DHT22;29904;51.058;5.378;2023-08-01T02:52:54;16.50;99.90
44229;DHT22;29904;51.058;5.378;2023-08-01T02:55:19;16.50;99.90
44229;DHT22;29904;51.058;5.378;2023-08-01T02:57:45;16.50;99.90
44229;DHT22;29904;51.058;5.378;2023-08-01T03:00:11;16.50;99.90
44229;DHT22;29904;51.058;5.378;2023-08-01T03:02:38;16.50;99.90
44229;DHT22;29904;51.058;5.378;2023-08-01T03:05:06;16.50;99.90
44229;DHT22;29904;51.058;5.378;2023-08-01T03:07:33;16.50;99.90
44229;DHT22;29904;51.058;5.378;2023-08-01T03:09:59;16.50;99.90
44229;DHT22;29904;51.058;5.378;2023-08-01T03:12:24;16.40;99.90
44229;DHT22;29904;51.058;5.378;2023-08-01T03:14:50;16.50;99.90
44229;DHT22;29904;51.058;5.378;2023-08-01T03:17:16;16.50;99.90
44229;DHT22;29904;51.058;5.378;2023-08-01T03:19:42;16.50;99.90
44229;DHT22;29904;51.058;5.378;2023-08-01T03:22:09;16.40;99.90
44229;DHT22;29904;51.058;5.378;2023-08-01T03:24:35;16.40;99.90
44229;DHT22;29904;51.058;5.378;2023-08-01T03:27:01;16.40;99.90
44229;DHT22;29904;51.058;5.378;2023-08-01T03:29:26;16.40;99.90
44229;DHT22;29904;51.058;5.378;2023-08-01T03:31:52;16.40;99.90
44229;DHT22;29904;51.058;5.378;2023-08-01T03:34:18;16.40;99.90
44229;DHT22;29904;51.058;5.378;2023-08-01T03:36:44;16.50;99.90
44229;DHT22;29904;51.058;5.378;2023-08-01T03:39:10;16.50;99.90
44229;DHT22;29904;51.058;5.378;2023-08-01T03:41:36;16.50;99.90
44229;DHT22;29904;51.058;5.378;2023-08-01T03:44:04;16.40;99.90
44229;DHT22;29904;51.058;5.378;2023-08-01T03:46:30;16.40;99.90
44229;DHT22;29904;51.058;5.378;2023-08-01T03:48:56;16.50;99.90
44229;DHT22;29904;51.058;5.378;2023-08-01T03:51:21;16.50;99.90
44229;DHT22;29904;51.058;5.378;2023-08-01T03:53:47;16.50;99.90
44229;DHT22;29904;51.058;5.378;2023-08-01T03:56:13;16.40;99.90
44229;DHT22;29904;51.058;5.378;2023-08-01T03:58:39;16.40;99.90
44229;DHT22;29904;51.058;5.378;2023-08-01T04:01:05;16.30;99.90
44229;DHT22;29904;51.058;5.378;2023-08-01T04:03:32;16.20;99.90
44229;DHT22;29904;51.058;5.378;2023-08-01T04:05:58;16.20;99.90
44229;DHT22;29904;51.058;5.378;2023-08-01T04:08:23;16.10;99.90
44229;DHT22;29904;51.058;5.378;2023-08-01T04:10:49;16.10;99.90
44229;DHT22;29904;51.058;5.378;2023-08-01T04:13:18;16.20;99.90
44229;DHT22;29904;51.058;5.378;2023-08-01T04:15:44;16.20;99.90
44229;DHT22;29904;51.058;5.378;2023-08-01T04:18:09;16.20;99.90
44229;DHT22;29904;51.058;5.378;2023-08-01T04:20:35;16.20;99.90
44229;DHT22;29904;51.058;5.378;2023-08-01T04:23:01;16.20;99.90
44229;DHT22;29904;51.058;5.378;2023-08-01T04:25:27;16.30;99.90
44229;DHT22;29904;51.058;5.378;2023-08-01T04:27:53;16.30;99.90
44229;DHT22;29904;51.058;5.378;2023-08-01T04:30:19;16.30;99.90
44229;DHT22;29904;51.058;5.378;2023-08-01T04:32:44;16.30;99.90
44229;DHT22;29904;51.058;5.378;2023-08-01T04:35:10;16.30;99.90
44229;DHT22;29904;51.058;5.378;2023-08-01T04:37:36;16.30;99.90
44229;DHT22;29904;51.058;5.378;2023-08-01T04:40:02;16.30;99.90
44229;DHT22;29904;51.058;5.378;2023-08-01T04:42:28;16.30;99.90
44229;DHT22;29904;51.058;5.378;2023-08-01T04:44:54;16.30;99.90
44229;DHT22;29904;51.058;5.378;2023-08-01T04:47:21;16.30;99.90
44229;DHT22;29904;51.058;5.378;2023-08-01T04:49:47;16.40;99.90
44229;DHT22;29904;51.058;5.378;2023-08-01T04:52:12;16.40;99.90
44229;DHT22;29904;51.058;5.378;2023-08-01T04:54:38;16.30;99.90
44229;DHT22;29904;51.058;5.378;2023-08-01T04:57:04;16.40;99.90
44229;DHT22;29904;51.058;5.378;2023-08-01T04:59:30;16.40;99.90
44229;DHT22;29904;51.058;5.378;2023-08-01T05:01:56;16.50;99.90
44229;DHT22;29904;51.058;5.378;2023-08-01T05:04:21;16.40;99.90
44229;DHT22;29904;51.058;5.378;2023-08-01T05:06:47;16.50;99.90
44229;DHT22;29904;51.058;5.378;2023-08-01T05:09:13;16.50;99.90
44229;DHT22;29904;51.058;5.378;2023-08-01T05:11:39;16.50;99.90
44229;DHT22;29904;51.058;5.378;2023-08-01T05:14:04;16.50;99.90
44229;DHT22;29904;51.058;5.378;2023-08-01T05:16:31;16.50;99.90
44229;DHT22;29904;51.058;5.378;2023-08-01T05:18:56;16.50;99.90
44229;DHT22;29904;51.058;5.378;2023-08-01T05:21:22;16.50;99.90
44229;DHT22;29904;51.058;5.378;2023-08-01T05:23:48;16.50;99.90
44229;DHT22;29904;51.058;5.378;2023-08-01T05:26:14;16.60;99.90
44229;DHT22;29904;51.058;5.378;2023-08-01T05:28:39;16.60;99.90
44229;DHT22;29904;51.058;5.378;2023-08-01T05:31:05;16.60;99.90
44229;DHT22;29904;51.058;5.378;2023-08-01T05:33:31;16.60;99.90
44229;DHT22;29904;51.058;5.378;2023-08-01T05:35:57;16.70;99.90
44229;DHT22;29904;51.058;5.378;2023-08-01T05:38:22;16.70;99.90
44229;DHT22;29904;51.058;5.378;2023-08-01T05:40:48;16.80;99.90
44229;DHT22;29904;51.058;5.378;2023-08-01T05:43:14;16.80;99.90
44229;DHT22;29904;51.058;5.378;2023-08-01T05:45:39;16.90;99.90
44229;DHT22;29904;51.058;5.378;2023-08-01T05:48:05;16.90;99.90
44229;DHT22;29904;51.058;5.378;2023-08-01T05:50:31;16.90;99.90
44229;DHT22;29904;51.058;5.378;2023-08-01T05:52:56;16.90;99.90
44229;DHT22;29904;51.058;5.378;2023-08-01T05:55:22;17.00;99.90
44229;DHT22;29904;51.058;5.378;2023-08-01T05:57:48;17.00;99.90
44229;DHT22;29904;51.058;5.378;2023-08-01T06:00:18;17.10;99.90
44229;DHT22;29904;51.058;5.378;2023-08-01T06:02:45;17.10;99.90
44229;DHT22;29904;51.058;5.378;2023-08-01T06:05:11;17.20;99.90
44229;DHT22;29904;51.058;5.378;2023-08-01T06:07:38;17.10;99.90
44229;DHT22;29904;51.058;5.378;2023-08-01T06:10:04;17.10;99.90
44229;DHT22;29904;51.058;5.378;2023-08-01T06:12:30;17.20;99.90
44229;DHT22;29904;51.058;5.378;2023-08-01T06:14:55;17.20;99.90
44229;DHT22;29904;51.058;5.378;2023-08-01T06:17:21;17.20;99.90
44229;DHT22;29904;51.058;5.378;2023-08-01T06:19:47;17.30;99.90
44229;DHT22;29904;51.058;5.378;2023-08-01T06:22:13;17.40;99.90
44229;DHT22;29904;51.058;5.378;2023-08-01T06:24:38;17.50;99.90
44229;DHT22;29904;51.058;5.378;2023-08-01T06:27:04;17.50;99.90
44229;DHT22;29904;51.058;5.378;2023-08-01T06:29:31;17.50;99.90
44229;DHT22;29904;51.058;5.378;2023-08-01T06:31:56;17.60;99.90
44229;DHT22;29904;51.058;5.378;2023-08-01T06:34:22;17.60;99.90
44229;DHT22;29904;51.058;5.378;2023-08-01T06:36:48;17.70;99.90
44229;DHT22;29904;51.058;5.378;2023-08-01T06:39:14;17.80;99.90
44229;DHT22;29904;51.058;5.378;2023-08-01T06:41:39;17.90;99.90
44229;DHT22;29904;51.058;5.378;2023-08-01T06:44:05;17.90;99.90
44229;DHT22;29904;51.058;5.378;2023-08-01T06:46:31;17.90;99.90
44229;DHT22;29904;51.058;5.378;2023-08-01T06:48:56;17.80;99.90
44229;DHT22;29904;51.058;5.378;2023-08-01T06:51:22;17.90;99.90
44229;DHT22;29904;51.058;5.378;2023-08-01T06:53:48;18.00;99.90
44229;DHT22;29904;51.058;5.378;2023-08-01T06:56:14;17.90;99.90
44229;DHT22;29904;51.058;5.378;2023-08-01T06:58:39;17.90;99.90
44229;DHT22;29904;51.058;5.378;2023-08-01T07:01:05;17.90;99.90
44229;DHT22;29904;51.058;5.378;2023-08-01T07:03:31;18.00;99.90
44229;DHT22;29904;51.058;5.378;2023-08-01T07:05:57;18.00;99.90
44229;DHT22;29904;51.058;5.378;2023-08-01T07:08:23;18.00;99.90
44229;DHT22;29904;51.058;5.378;2023-08-01T07:10:49;18.00;99.90
44229;DHT22;29904;51.058;5.378;2023-08-01T07:13:14;18.00;99.90
44229;DHT22;29904;51.058;5.378;2023-08-01T07:15:41;18.00;99.90
44229;DHT22;29904;51.058;5.378;2023-08-01T07:18:07;18.10;99.90
44229;DHT22;29904;51.058;5.378;2023-08-01T07:20:33;18.30;99.90
44229;DHT22;29904;51.058;5.378;2023-08-01T07:22:58;18.50;99.90
44229;DHT22;29904;51.058;5.378;2023-08-01T07:25:24;18.70;99.90
44229;DHT22;29904;51.058;5.378;2023-08-01T07:27:50;18.80;99.90
44229;DHT22;29904;51.058;5.378;2023-08-01T07:30:16;18.90;99.90
44229;DHT22;29904;51.058;5.378;2023-08-01T07:32:42;18.90;99.90
44229;DHT22;29904;51.058;5.378;2023-08-01T07:35:09;19.00;99.90
44229;DHT22;29904;51.058;5.378;2023-08-01T07:37:35;19.00;99.90
44229;DHT22;29904;51.058;5.378;2023-08-01T07:40:04;19.20;99.90
44229;DHT22;29904;51.058;5.378;2023-08-01T07:42:30;19.30;99.90
44229;DHT22;29904;51.058;5.378;2023-08-01T07:44:56;19.30;99.90
44229;DHT22;29904;51.058;5.378;2023-08-01T07:47:22;19.30;99.90
44229;DHT22;29904;51.058;5.378;2023-08-01T07:49:50;19.30;99.90
44229;DHT22;29904;51.058;5.378;2023-08-01T07:52:16;19.30;99.90
44229;DHT22;29904;51.058;5.378;2023-08-01T07:54:41;19.40;99.90
44229;DHT22;29904;51.058;5.378;2023-08-01T07:57:07;19.50;99.90
44229;DHT22;29904;51.058;5.378;2023-08-01T07:59:33;19.50;99.90
44229;DHT22;29904;51.058;5.378;2023-08-01T08:01:59;19.50;99.90
44229;DHT22;29904;51.058;5.378;2023-08-01T08:04:24;19.50;99.90
44229;DHT22;29904;51.058;5.378;2023-08-01T08:06:50;19.60;99.90
44229;DHT22;29904;51.058;5.378;2023-08-01T08:09:17;19.50;99.90
44229;DHT22;29904;51.058;5.378;2023-08-01T08:11:43;19.50;99.90
44229;DHT22;29904;51.058;5.378;2023-08-01T08:14:08;19.50;99.90
44229;DHT22;29904;51.058;5.378;2023-08-01T08:16:34;19.70;99.90
44229;DHT22;29904;51.058;5.378;2023-08-01T08:19:00;19.80;99.90
44229;DHT22;29904;51.058;5.378;2023-08-01T08:21:26;19.90;99.90
44229;DHT22;29904;51.058;5.378;2023-08-01T08:23:52;19.90;99.90
44229;DHT22;29904;51.058;5.378;2023-08-01T08:26:17;19.90;99.90
44229;DHT22;29904;51.058;5.378;2023-08-01T08:28:43;20.00;99.90
44229;DHT22;29904;51.058;5.378;2023-08-01T08:31:09;20.10;99.90
44229;DHT22;29904;51.058;5.378;2023-08-01T08:33:35;20.50;99.90
44229;DHT22;29904;51.058;5.378;2023-08-01T08:36:01;20.40;99.90
44229;DHT22;29904;51.058;5.378;2023-08-01T08:38:26;20.60;99.90
44229;DHT22;29904;51.058;5.378;2023-08-01T08:41:17;20.90;99.90
44229;DHT22;29904;51.058;5.378;2023-08-01T08:44:19;21.20;99.90
44229;DHT22;29904;51.058;5.378;2023-08-01T08:46:50;21.90;99.90
44229;DHT22;29904;51.058;5.378;2023-08-01T08:49:17;21.80;99.90
44229;DHT22;29904;51.058;5.378;2023-08-01T08:51:45;21.70;99.90
44229;DHT22;29904;51.058;5.378;2023-08-01T08:54:13;21.50;99.90
44229;DHT22;29904;51.058;5.378;2023-08-01T08:56:39;21.20;99.90
44229;DHT22;29904;51.058;5.378;2023-08-01T08:59:07;21.40;99.90
44229;DHT22;29904;51.058;5.378;2023-08-01T09:01:33;21.30;99.90
44229;DHT22;29904;51.058;5.378;2023-08-01T09:03:59;21.20;99.90
44229;DHT22;29904;51.058;5.378;2023-08-01T09:06:29;21.40;99.90
44229;DHT22;29904;51.058;5.378;2023-08-01T09:09:11;21.60;99.90
44229;DHT22;29904;51.058;5.378;2023-08-01T09:11:49;21.60;99.90
44229;DHT22;29904;51.058;5.378;2023-08-01T09:14:16;21.40;99.90
44229;DHT22;29904;51.058;5.378;2023-08-01T09:16:43;21.40;99.90
44229;DHT22;29904;51.058;5.378;2023-08-01T09:19:09;21.30;99.90
44229;DHT22;29904;51.058;5.378;2023-08-01T09:21:39;21.20;99.90
44229;DHT22;29904;51.058;5.378;2023-08-01T09:24:12;21.00;99.90
44229;DHT22;29904;51.058;5.378;2023-08-01T09:26:39;20.90;99.90
44229;DHT22;29904;51.058;5.378;2023-08-01T09:29:05;21.10;99.90
44229;DHT22;29904;51.058;5.378;2023-08-01T09:31:37;21.30;99.90
44229;DHT22;29904;51.058;5.378;2023-08-01T09:34:04;21.40;99.90
44229;DHT22;29904;51.058;5.378;2023-08-01T09:36:31;21.50;99.90
44229;DHT22;29904;51.058;5.378;2023-08-01T09:39:03;21.50;99.90
44229;DHT22;29904;51.058;5.378;2023-08-01T09:41:30;21.40;99.90
44229;DHT22;29904;51.058;5.378;2023-08-01T09:43:57;21.20;99.90
44229;DHT22;29904;51.058;5.378;2023-08-01T09:46:24;21.00;99.90
44229;DHT22;29904;51.058;5.378;2023-08-01T09:48:49;21.00;99.90
44229;DHT22;29904;51.058;5.378;2023-08-01T09:51:17;21.30;99.90
44229;DHT22;29904;51.058;5.378;2023-08-01T09:53:56;21.50;99.90
44229;DHT22;29904;51.058;5.378;2023-08-01T09:56:24;21.90;99.90
44229;DHT22;29904;51.058;5.378;2023-08-01T09:58:51;21.90;99.90
44229;DHT22;29904;51.058;5.378;2023-08-01T10:01:19;21.80;99.90
44229;DHT22;29904;51.058;5.378;2023-08-01T10:03:47;21.70;99.90
44229;DHT22;29904;51.058;5.378;2023-08-01T10:06:23;21.70;99.90
44229;DHT22;29904;51.058;5.378;2023-08-01T10:08:51;21.70;99.90
44229;DHT22;29904;51.058;5.378;2023-08-01T10:11:18;21.80;99.90
44229;DHT22;29904;51.058;5.378;2023-08-01T10:13:45;21.70;99.90
44229;DHT22;29904;51.058;5.378;2023-08-01T10:16:12;21.50;99.90
44229;DHT22;29904;51.058;5.378;2023-08-01T10:18:39;21.40;99.90
44229;DHT22;29904;51.058;5.378;2023-08-01T10:21:06;21.50;99.90
44229;DHT22;29904;51.058;5.378;2023-08-01T10:23:35;21.70;99.90
44229;DHT22;29904;51.058;5.378;2023-08-01T10:26:05;22.30;99.90
44229;DHT22;29904;51.058;5.378;2023-08-01T10:28:40;22.70;99.90
44229;DHT22;29904;51.058;5.378;2023-08-01T10:31:16;22.90;99.90
44229;DHT22;29904;51.058;5.378;2023-08-01T10:33:46;22.80;99.90
44229;DHT22;29904;51.058;5.378;2023-08-01T10:36:17;22.90;99.90
44229;DHT22;29904;51.058;5.378;2023-08-01T10:38:51;23.10;99.90
44229;DHT22;29904;51.058;5.378;2023-08-01T10:41:21;23.00;99.90
44229;DHT22;29904;51.058;5.378;2023-08-01T10:43:47;22.90;99.90
44229;DHT22;29904;51.058;5.378;2023-08-01T10:46:13;22.70;99.90
44229;DHT22;29904;51.058;5.378;2023-08-01T10:48:52;22.50;99.90
44229;DHT22;29904;51.058;5.378;2023-08-01T10:51:18;22.50;99.90
44229;DHT22;29904;51.058;5.378;2023-08-01T10:53:44;22.50;99.90
44229;DHT22;29904;51.058;5.378;2023-08-01T10:56:18;22.50;99.90
44229;DHT22;29904;51.058;5.378;2023-08-01T10:58:44;22.40;99.90
44229;DHT22;29904;51.058;5.378;2023-08-01T11:01:10;22.50;99.90
44229;DHT22;29904;51.058;5.378;2023-08-01T11:03:37;22.50;99.90
44229;DHT22;29904;51.058;5.378;2023-08-01T11:06:03;22.20;99.90
44229;DHT22;29904;51.058;5.378;2023-08-01T11:08:36;22.20;99.90
44229;DHT22;29904;51.058;5.378;2023-08-01T11:11:07;22.20;99.90
44229;DHT22;29904;51.058;5.378;2023-08-01T11:13:33;22.30;99.90
44229;DHT22;29904;51.058;5.378;2023-08-01T11:16:03;22.30;99.90
44229;DHT22;29904;51.058;5.378;2023-08-01T11:18:30;22.30;99.90
44229;DHT22;29904;51.058;5.378;2023-08-01T11:20:56;22.50;99.90
44229;DHT22;29904;51.058;5.378;2023-08-01T11:23:29;22.70;99.90
44229;DHT22;29904;51.058;5.378;2023-08-01T11:25:55;22.90;99.90
44229;DHT22;29904;51.058;5.378;2023-08-01T11:28:21;23.10;99.90
44229;DHT22;29904;51.058;5.378;2023-08-01T11:30:48;23.30;99.90
44229;DHT22;29904;51.058;5.378;2023-08-01T11:33:18;23.30;99.90
44229;DHT22;29904;51.058;5.378;2023-08-01T11:35:49;23.20;99.90
44229;DHT22;29904;51.058;5.378;2023-08-01T11:38:15;23.10;99.90
44229;DHT22;29904;51.058;5.378;2023-08-01T11:40:40;23.10;99.90
44229;DHT22;29904;51.058;5.378;2023-08-01T11:43:07;23.10;99.90
44229;DHT22;29904;51.058;5.378;2023-08-01T11:45:33;23.10;99.90
44229;DHT22;29904;51.058;5.378;2023-08-01T11:47:58;23.10;99.90
44229;DHT22;29904;51.058;5.378;2023-08-01T11:50:25;23.10;99.90
44229;DHT22;29904;51.058;5.378;2023-08-01T11:52:51;23.40;99.90
44229;DHT22;29904;51.058;5.378;2023-08-01T11:55:26;23.80;99.90
44229;DHT22;29904;51.058;5.378;2023-08-01T11:58:01;23.90;99.90
44229;DHT22;29904;51.058;5.378;2023-08-01T12:00:28;24.00;99.90
44229;DHT22;29904;51.058;5.378;2023-08-01T12:03:08;24.10;99.90
44229;DHT22;29904;51.058;5.378;2023-08-01T12:05:39;24.00;99.90
44229;DHT22;29904;51.058;5.378;2023-08-01T12:08:13;23.90;99.90
44229;DHT22;29904;51.058;5.378;2023-08-01T12:10:41;23.60;99.90
44229;DHT22;29904;51.058;5.378;2023-08-01T12:13:21;23.30;99.90
44229;DHT22;29904;51.058;5.378;2023-08-01T12:15:53;23.10;99.90
44229;DHT22;29904;51.058;5.378;2023-08-01T12:18:26;23.00;99.90
44229;DHT22;29904;51.058;5.378;2023-08-01T12:20:52;22.90;99.90
44229;DHT22;29904;51.058;5.378;2023-08-01T12:23:18;22.80;99.90
44229;DHT22;29904;51.058;5.378;2023-08-01T12:25:45;22.70;99.90
44229;DHT22;29904;51.058;5.378;2023-08-01T12:28:12;22.50;99.90
44229;DHT22;29904;51.058;5.378;2023-08-01T12:30:43;22.40;99.90
44229;DHT22;29904;51.058;5.378;2023-08-01T12:33:09;22.50;99.90
44229;DHT22;29904;51.058;5.378;2023-08-01T12:35:39;22.50;99.90
44229;DHT22;29904;51.058;5.378;2023-08-01T12:38:05;22.50;99.90
44229;DHT22;29904;51.058;5.378;2023-08-01T12:40:30;22.60;99.90
44229;DHT22;29904;51.058;5.378;2023-08-01T12:42:56;22.60;99.90
44229;DHT22;29904;51.058;5.378;2023-08-01T12:45:21;22.70;99.90
44229;DHT22;29904;51.058;5.378;2023-08-01T12:47:48;22.80;99.90
44229;DHT22;29904;51.058;5.378;2023-08-01T12:50:14;23.40;99.90
44229;DHT22;29904;51.058;5.378;2023-08-01T12:52:40;23.90;99.90
44229;DHT22;29904;51.058;5.378;2023-08-01T12:55:06;24.10;99.90
44229;DHT22;29904;51.058;5.378;2023-08-01T12:57:32;24.30;99.90
44229;DHT22;29904;51.058;5.378;2023-08-01T12:59:58;24.30;99.90
44229;DHT22;29904;51.058;5.378;2023-08-01T13:02:24;24.30;99.90
44229;DHT22;29904;51.058;5.378;2023-08-01T13:04:50;24.10;99.90
44229;DHT22;29904;51.058;5.378;2023-08-01T13:07:15;24.00;99.90
44229;DHT22;29904;51.058;5.378;2023-08-01T13:09:42;24.20;99.90
44229;DHT22;29904;51.058;5.378;2023-08-01T13:12:07;24.30;99.90
44229;DHT22;29904;51.058;5.378;2023-08-01T13:14:33;24.30;99.90
44229;DHT22;29904;51.058;5.378;2023-08-01T13:16:59;24.40;99.90
44229;DHT22;29904;51.058;5.378;2023-08-01T13:19:25;24.20;99.90
44229;DHT22;29904;51.058;5.378;2023-08-01T13:21:51;23.90;99.90
44229;DHT22;29904;51.058;5.378;2023-08-01T13:24:17;23.70;99.90
44229;DHT22;29904;51.058;5.378;2023-08-01T13:26:42;23.60;99.90
44229;DHT22;29904;51.058;5.378;2023-08-01T13:29:08;23.40;99.90
44229;DHT22;29904;51.058;5.378;2023-08-01T13:31:34;23.30;99.90
44229;DHT22;29904;51.058;5.378;2023-08-01T13:34:00;23.70;99.90
44229;DHT22;29904;51.058;5.378;2023-08-01T13:36:25;23.70;99.90
44229;DHT22;29904;51.058;5.378;2023-08-01T13:38:51;23.70;99.90
44229;DHT22;29904;51.058;5.378;2023-08-01T13:41:17;23.60;99.90
44229;DHT22;29904;51.058;5.378;2023-08-01T13:43:42;23.40;99.90
44229;DHT22;29904;51.058;5.378;2023-08-01T13:46:16;23.20;99.90
44229;DHT22;29904;51.058;5.378;2023-08-01T13:48:46;22.80;99.90
44229;DHT22;29904;51.058;5.378;2023-08-01T13:51:12;22.50;99.90
44229;DHT22;29904;51.058;5.378;2023-08-01T13:53:39;22.40;99.90
44229;DHT22;29904;51.058;5.378;2023-08-01T13:56:08;22.70;99.90
44229;DHT22;29904;51.058;5.378;2023-08-01T13:58:34;22.90;99.90
44229;DHT22;29904;51.058;5.378;2023-08-01T14:01:04;23.20;99.90
44229;DHT22;29904;51.058;5.378;2023-08-01T14:03:31;23.40;99.90
44229;DHT22;29904;51.058;5.378;2023-08-01T14:06:06;23.50;99.90
44229;DHT22;29904;51.058;5.378;2023-08-01T14:08:33;23.30;99.90
44229;DHT22;29904;51.058;5.378;2023-08-01T14:10:59;23.30;99.90
44229;DHT22;29904;51.058;5.378;2023-08-01T14:13:24;23.20;99.90
44229;DHT22;29904;51.058;5.378;2023-08-01T14:15:50;23.20;99.90
44229;DHT22;29904;51.058;5.378;2023-08-01T14:18:17;23.10;99.90
44229;DHT22;29904;51.058;5.378;2023-08-01T14:20:42;23.00;99.90
44229;DHT22;29904;51.058;5.378;2023-08-01T14:23:08;22.90;99.90
44229;DHT22;29904;51.058;5.378;2023-08-01T14:25:34;22.70;99.90
44229;DHT22;29904;51.058;5.378;2023-08-01T14:28:00;22.40;99.90
44229;DHT22;29904;51.058;5.378;2023-08-01T14:30:26;22.20;99.90
44229;DHT22;29904;51.058;5.378;2023-08-01T14:33:08;22.00;99.90
44229;DHT22;29904;51.058;5.378;2023-08-01T14:35:37;22.00;99.90
44229;DHT22;29904;51.058;5.378;2023-08-01T14:38:04;22.10;99.90
44229;DHT22;29904;51.058;5.378;2023-08-01T14:40:30;22.30;99.90
44229;DHT22;29904;51.058;5.378;2023-08-01T14:42:56;22.50;99.90
44229;DHT22;29904;51.058;5.378;2023-08-01T14:45:22;22.70;99.90
44229;DHT22;29904;51.058;5.378;2023-08-01T14:47:48;23.00;99.90
44229;DHT22;29904;51.058;5.378;2023-08-01T14:50:15;23.00;99.90
44229;DHT22;29904;51.058;5.378;2023-08-01T14:52:41;23.00;99.90
44229;DHT22;29904;51.058;5.378;2023-08-01T14:55:07;22.80;99.90
44229;DHT22;29904;51.058;5.378;2023-08-01T14:57:33;22.50;99.90
44229;DHT22;29904;51.058;5.378;2023-08-01T14:59:59;22.30;99.90
44229;DHT22;29904;51.058;5.378;2023-08-01T15:02:26;22.20;99.90
44229;DHT22;29904;51.058;5.378;2023-08-01T15:04:52;22.20;99.90
44229;DHT22;29904;51.058;5.378;2023-08-01T15:07:21;22.10;99.90
44229;DHT22;29904;51.058;5.378;2023-08-01T15:09:47;22.20;99.90
44229;DHT22;29904;51.058;5.378;2023-08-01T15:12:15;22.40;99.90
44229;DHT22;29904;51.058;5.378;2023-08-01T15:14:41;22.60;99.90
44229;DHT22;29904;51.058;5.378;2023-08-01T15:17:07;22.90;99.90
44229;DHT22;29904;51.058;5.378;2023-08-01T15:19:37;23.10;99.90
44229;DHT22;29904;51.058;5.378;2023-08-01T15:22:03;23.20;99.90
44229;DHT22;29904;51.058;5.378;2023-08-01T15:24:32;22.90;99.90
44229;DHT22;29904;51.058;5.378;2023-08-01T15:26:58;22.80;99.90
44229;DHT22;29904;51.058;5.378;2023-08-01T15:29:23;22.50;99.90